createdAt,value
2023-03-13T00:00:07.004Z,0.00
2023-03-13T00:01:06.996Z,0.00
2023-03-13T00:03:41.899Z,0.00
2023-03-13T00:04:41.893Z,0.00
2023-03-13T00:05:41.862Z,0.00
2023-03-13T00:06:41.852Z,0.00
2023-03-13T00:07:41.837Z,0.00
2023-03-13T00:08:41.841Z,0.00
2023-03-13T00:09:41.820Z,0.00
2023-03-13T00:10:41.808Z,0.00
2023-03-13T00:11:41.794Z,0.00
2023-03-13T00:12:41.782Z,0.00
2023-03-13T00:13:41.781Z,0.00
2023-03-13T00:14:41.763Z,0.00
2023-03-13T00:15:41.753Z,0.00
2023-03-13T00:16:41.829Z,0.00
2023-03-13T00:17:41.738Z,0.00
2023-03-13T00:18:41.732Z,0.00
2023-03-13T00:19:41.713Z,0.00
2023-03-13T00:20:41.701Z,0.00
2023-03-13T00:21:41.696Z,0.00
2023-03-13T00:22:41.677Z,0.00
2023-03-13T00:23:41.678Z,0.00
2023-03-13T00:24:41.659Z,0.00
2023-03-13T00:25:41.643Z,0.00
2023-03-13T00:26:41.637Z,0.00
2023-03-13T00:27:41.622Z,0.00
2023-03-13T00:28:41.631Z,0.00
2023-03-13T00:29:41.615Z,0.00
2023-03-13T00:30:41.616Z,0.00
2023-03-13T00:31:41.582Z,0.00
2023-03-13T00:32:41.621Z,0.00
2023-03-13T00:33:41.591Z,0.00
2023-03-13T00:34:41.565Z,0.00
2023-03-13T00:35:41.670Z,0.00
2023-03-13T00:36:41.530Z,0.00
2023-03-13T00:37:41.530Z,0.00
2023-03-13T00:38:41.532Z,0.00
2023-03-13T00:39:41.502Z,0.00
2023-03-13T00:40:41.488Z,0.00
2023-03-13T00:41:41.487Z,0.00
2023-03-13T00:42:41.465Z,0.00
2023-03-13T00:43:41.470Z,0.00
2023-03-13T00:44:41.442Z,0.00
2023-03-13T00:45:41.449Z,0.00
2023-03-13T00:46:41.422Z,0.00
2023-03-13T00:47:41.415Z,0.00
2023-03-13T00:48:41.413Z,0.00
2023-03-13T00:49:41.405Z,0.00
2023-03-13T00:50:41.380Z,0.00
2023-03-13T00:51:41.381Z,0.00
2023-03-13T00:52:41.371Z,0.00
2023-03-13T00:53:41.363Z,0.00
2023-03-13T00:54:41.336Z,0.00
2023-03-13T00:55:41.332Z,0.00
2023-03-13T00:56:41.326Z,0.00
2023-03-13T00:57:41.307Z,0.00
2023-03-13T00:58:41.318Z,0.00
2023-03-13T00:59:41.298Z,0.00
2023-03-13T01:00:41.286Z,0.00
2023-03-13T01:01:41.282Z,0.00
2023-03-13T01:02:41.389Z,0.00
2023-03-13T01:03:41.362Z,0.00
2023-03-13T01:04:41.238Z,0.00
2023-03-13T01:05:41.237Z,0.00
2023-03-13T01:06:41.213Z,0.00
2023-03-13T01:07:41.209Z,0.00
2023-03-13T01:08:41.217Z,0.00
2023-03-13T01:09:41.186Z,0.00
2023-03-13T01:10:41.177Z,0.00
2023-03-13T01:11:41.163Z,0.00
2023-03-13T01:12:41.153Z,0.00
2023-03-13T01:13:41.169Z,0.00
2023-03-13T01:14:41.133Z,0.00
2023-03-13T01:15:41.163Z,0.00
2023-03-13T01:16:41.112Z,0.00
2023-03-13T01:17:41.106Z,0.00
2023-03-13T01:18:41.106Z,0.00
2023-03-13T01:19:41.091Z,0.00
2023-03-13T01:20:41.072Z,0.00
2023-03-13T01:21:41.059Z,0.00
2023-03-13T01:22:41.049Z,0.00
2023-03-13T01:23:41.051Z,0.00
2023-03-13T01:24:41.025Z,0.00
2023-03-13T01:25:41.019Z,0.00
2023-03-13T01:26:41.009Z,0.00
2023-03-13T01:27:41.013Z,0.00
2023-03-13T01:28:40.995Z,0.00
2023-03-13T01:29:40.980Z,0.00
2023-03-13T01:30:40.986Z,0.00
2023-03-13T01:31:40.963Z,0.00
2023-03-13T01:32:40.971Z,0.00
2023-03-13T01:33:40.950Z,0.00
2023-03-13T01:34:40.925Z,0.00
2023-03-13T01:35:40.981Z,0.00
2023-03-13T01:36:40.907Z,0.00
2023-03-13T01:37:40.897Z,0.00
2023-03-13T01:38:40.897Z,0.00
2023-03-13T01:39:40.889Z,0.00
2023-03-13T01:40:40.877Z,0.00
2023-03-13T01:41:40.856Z,0.00
2023-03-13T01:42:40.840Z,0.00
2023-03-13T01:43:40.829Z,0.00
2023-03-13T01:44:40.825Z,0.00
2023-03-13T01:45:40.809Z,0.00
2023-03-13T01:46:40.824Z,0.00
2023-03-13T01:47:40.787Z,0.00
2023-03-13T01:48:40.767Z,0.00
2023-03-13T01:49:40.772Z,0.00
2023-03-13T01:50:40.780Z,0.00
2023-03-13T01:51:40.743Z,0.00
2023-03-13T01:52:40.725Z,0.00
2023-03-13T01:53:40.720Z,0.00
2023-03-13T01:54:40.732Z,0.00
2023-03-13T01:55:40.720Z,0.00
2023-03-13T01:56:40.694Z,0.00
2023-03-13T01:57:40.684Z,0.00
2023-03-13T01:58:40.663Z,0.00
2023-03-13T01:59:40.682Z,0.00
2023-03-13T02:00:40.647Z,0.00
2023-03-13T02:01:40.646Z,0.00
2023-03-13T02:02:40.641Z,0.00
2023-03-13T02:03:40.616Z,0.00
2023-03-13T02:04:40.617Z,0.00
2023-03-13T02:05:40.601Z,0.00
2023-03-13T02:06:40.584Z,0.00
2023-03-13T02:07:40.580Z,0.00
2023-03-13T02:08:40.562Z,0.00
2023-03-13T02:09:40.562Z,0.00
2023-03-13T02:10:40.544Z,0.00
2023-03-13T02:11:40.542Z,0.00
2023-03-13T02:12:40.517Z,0.00
2023-03-13T02:13:40.505Z,0.00
2023-03-13T02:14:40.503Z,0.00
2023-03-13T02:15:40.499Z,0.00
2023-03-13T02:16:40.471Z,0.00
2023-03-13T02:17:40.477Z,0.00
2023-03-13T02:18:40.463Z,0.00
2023-03-13T02:19:40.458Z,0.00
2023-03-13T02:20:40.442Z,0.00
2023-03-13T02:21:40.426Z,0.00
2023-03-13T02:22:40.411Z,0.00
2023-03-13T02:23:40.401Z,0.00
2023-03-13T02:24:40.404Z,0.00
2023-03-13T02:25:40.385Z,0.00
2023-03-13T02:26:40.426Z,0.00
2023-03-13T02:27:40.367Z,0.00
2023-03-13T02:28:40.358Z,0.00
2023-03-13T02:29:40.428Z,0.00
2023-03-13T02:30:40.363Z,0.00
2023-03-13T02:31:40.435Z,0.00
2023-03-13T02:32:40.479Z,0.00
2023-03-13T02:33:40.310Z,0.00
2023-03-13T02:34:40.309Z,0.00
2023-03-13T02:35:40.330Z,0.00
2023-03-13T02:36:40.269Z,0.00
2023-03-13T02:37:40.260Z,0.00
2023-03-13T02:38:40.246Z,0.00
2023-03-13T02:39:40.261Z,0.00
2023-03-13T02:40:40.229Z,0.00
2023-03-13T02:41:40.223Z,0.00
2023-03-13T02:42:40.209Z,0.00
2023-03-13T02:43:40.222Z,0.00
2023-03-13T02:44:40.210Z,0.00
2023-03-13T02:45:40.181Z,0.00
2023-03-13T02:46:40.270Z,0.00
2023-03-13T02:47:40.170Z,0.00
2023-03-13T02:48:40.151Z,0.00
2023-03-13T02:49:40.139Z,0.00
2023-03-13T02:50:40.140Z,0.00
2023-03-13T02:51:40.119Z,0.00
2023-03-13T02:52:40.106Z,0.00
2023-03-13T02:53:40.104Z,0.00
2023-03-13T02:54:40.087Z,0.00
2023-03-13T02:55:40.090Z,0.00
2023-03-13T02:56:40.072Z,0.00
2023-03-13T02:57:40.058Z,0.00
2023-03-13T02:58:49.242Z,0.00
2023-03-13T02:59:41.046Z,0.00
2023-03-13T03:00:40.104Z,0.00
2023-03-13T03:01:40.033Z,0.00
2023-03-13T03:02:40.023Z,0.00
2023-03-13T03:03:40.126Z,0.00
2023-03-13T03:04:40.003Z,0.00
2023-03-13T03:05:39.998Z,0.00
2023-03-13T03:06:39.977Z,0.00
2023-03-13T03:07:39.967Z,0.00
2023-03-13T03:08:39.955Z,0.00
2023-03-13T03:09:41.059Z,0.00
2023-03-13T03:10:41.067Z,0.00
2023-03-13T03:11:41.053Z,0.00
2023-03-13T03:12:41.046Z,0.00
2023-03-13T03:13:41.052Z,0.00
2023-03-13T03:14:41.016Z,0.00
2023-03-13T03:15:41.046Z,0.00
2023-03-13T03:16:41.043Z,0.00
2023-03-13T03:17:40.979Z,0.00
2023-03-13T03:18:40.995Z,0.00
2023-03-13T03:19:40.961Z,0.00
2023-03-13T03:20:40.972Z,0.00
2023-03-13T03:21:40.933Z,0.00
2023-03-13T03:22:40.997Z,0.00
2023-03-13T03:23:40.914Z,0.00
2023-03-13T03:24:40.922Z,0.00
2023-03-13T03:25:40.908Z,0.00
2023-03-13T03:26:40.889Z,0.00
2023-03-13T03:27:40.873Z,0.00
2023-03-13T03:28:40.869Z,0.00
2023-03-13T03:29:40.854Z,0.00
2023-03-13T03:30:40.851Z,0.00
2023-03-13T03:31:40.928Z,0.00
2023-03-13T03:32:40.861Z,0.00
2023-03-13T03:33:40.818Z,0.00
2023-03-13T03:34:40.800Z,0.00
2023-03-13T03:35:40.842Z,0.00
2023-03-13T03:36:40.775Z,0.00
2023-03-13T03:37:40.765Z,0.00
2023-03-13T03:38:40.760Z,0.00
2023-03-13T03:39:40.753Z,0.00
2023-03-13T03:40:40.761Z,0.00
2023-03-13T03:41:40.723Z,0.00
2023-03-13T03:42:40.724Z,0.00
2023-03-13T03:43:40.710Z,0.00
2023-03-13T03:44:40.694Z,0.00
2023-03-13T03:45:40.753Z,0.00
2023-03-13T03:46:40.785Z,4.00
2023-03-13T03:47:40.670Z,8.00
2023-03-13T03:48:40.655Z,8.00
2023-03-13T03:49:40.646Z,0.00
2023-03-13T03:50:40.695Z,0.00
2023-03-13T03:51:40.681Z,0.00
2023-03-13T03:52:40.689Z,0.00
2023-03-13T03:53:40.615Z,0.00
2023-03-13T03:54:40.596Z,0.00
2023-03-13T03:55:40.608Z,0.00
2023-03-13T03:56:40.588Z,0.00
2023-03-13T03:57:40.571Z,0.00
2023-03-13T03:58:40.570Z,0.00
2023-03-13T03:59:40.568Z,0.00
2023-03-13T04:00:40.570Z,0.00
2023-03-13T04:01:40.535Z,0.00
2023-03-13T04:02:40.557Z,0.00
2023-03-13T04:03:40.687Z,0.00
2023-03-13T04:04:40.514Z,0.00
2023-03-13T04:05:40.504Z,0.00
2023-03-13T04:06:40.479Z,0.00
2023-03-13T04:07:40.478Z,0.00
2023-03-13T04:08:40.455Z,0.00
2023-03-13T04:09:40.450Z,0.00
2023-03-13T04:10:40.459Z,0.00
2023-03-13T04:11:40.456Z,0.00
2023-03-13T04:12:40.422Z,0.00
2023-03-13T04:13:40.409Z,0.00
2023-03-13T04:14:40.398Z,0.00
2023-03-13T04:15:40.403Z,0.00
2023-03-13T04:16:40.451Z,0.00
2023-03-13T04:17:40.374Z,0.00
2023-03-13T04:18:40.359Z,0.00
2023-03-13T04:19:40.350Z,0.00
2023-03-13T04:20:40.338Z,0.00
2023-03-13T04:21:40.350Z,0.00
2023-03-13T04:22:40.318Z,0.00
2023-03-13T04:23:40.317Z,0.00
2023-03-13T04:24:40.301Z,0.00
2023-03-13T04:25:40.285Z,0.00
2023-03-13T04:26:40.285Z,0.00
2023-03-13T04:27:40.276Z,0.00
2023-03-13T04:28:40.261Z,0.00
2023-03-13T04:29:40.255Z,0.00
2023-03-13T04:30:40.270Z,0.00
2023-03-13T04:31:40.259Z,0.00
2023-03-13T04:32:40.293Z,8.00
2023-03-13T04:33:40.210Z,8.00
2023-03-13T04:34:40.194Z,8.00
2023-03-13T04:35:40.322Z,0.00
2023-03-13T04:36:40.205Z,0.00
2023-03-13T04:37:40.160Z,0.00
2023-03-13T04:38:40.156Z,0.00
2023-03-13T04:39:40.150Z,0.00
2023-03-13T04:40:40.137Z,0.00
2023-03-13T04:41:40.134Z,0.00
2023-03-13T04:42:40.122Z,0.00
2023-03-13T04:43:40.110Z,0.00
2023-03-13T04:44:42.413Z,0.00
2023-03-13T04:45:40.080Z,0.00
2023-03-13T04:46:40.085Z,0.00
2023-03-13T04:47:40.069Z,0.00
2023-03-13T04:48:40.056Z,0.00
2023-03-13T04:49:40.061Z,0.00
2023-03-13T04:50:40.039Z,0.00
2023-03-13T04:51:40.040Z,0.00
2023-03-13T04:52:40.022Z,0.00
2023-03-13T04:53:40.006Z,0.00
2023-03-13T04:54:39.996Z,0.00
2023-03-13T04:55:39.983Z,0.00
2023-03-13T04:56:43.673Z,0.00
2023-03-13T04:57:40.965Z,0.00
2023-03-13T04:58:39.956Z,0.00
2023-03-13T04:59:39.957Z,0.00
2023-03-13T05:00:39.936Z,0.00
2023-03-13T05:01:40.004Z,0.00
2023-03-13T05:02:39.923Z,0.00
2023-03-13T05:03:39.913Z,0.00
2023-03-13T05:04:39.929Z,0.00
2023-03-13T05:05:39.882Z,0.00
2023-03-13T05:06:39.883Z,0.00
2023-03-13T05:07:39.864Z,0.00
2023-03-13T05:08:39.849Z,0.00
2023-03-13T05:09:39.850Z,0.00
2023-03-13T05:10:39.837Z,0.00
2023-03-13T05:11:39.832Z,0.00
2023-03-13T05:12:39.818Z,0.00
2023-03-13T05:13:39.803Z,0.00
2023-03-13T05:14:39.841Z,0.00
2023-03-13T05:15:39.788Z,0.00
2023-03-13T05:16:39.781Z,0.00
2023-03-13T05:17:39.784Z,0.00
2023-03-13T05:18:39.773Z,0.00
2023-03-13T05:19:39.734Z,0.00
2023-03-13T05:20:39.731Z,0.00
2023-03-13T05:21:39.732Z,0.00
2023-03-13T05:22:39.714Z,0.00
2023-03-13T05:23:39.691Z,0.00
2023-03-13T05:24:41.848Z,0.00
2023-03-13T05:25:40.689Z,0.00
2023-03-13T05:26:39.679Z,4.00
2023-03-13T05:27:39.660Z,4.00
2023-03-13T05:28:39.642Z,0.00
2023-03-13T05:29:39.639Z,0.00
2023-03-13T05:30:39.766Z,4.00
2023-03-13T05:31:39.626Z,4.00
2023-03-13T05:32:39.643Z,4.00
2023-03-13T05:33:39.612Z,8.00
2023-03-13T05:34:39.597Z,8.00
2023-03-13T05:35:39.623Z,8.00
2023-03-13T05:36:39.594Z,12.00
2023-03-13T05:37:41.364Z,8.00
2023-03-13T05:38:40.554Z,12.00
2023-03-13T05:39:39.543Z,12.00
2023-03-13T05:40:39.532Z,12.00
2023-03-13T05:41:39.515Z,16.00
2023-03-13T05:42:39.517Z,16.00
2023-03-13T05:43:39.488Z,20.00
2023-03-13T05:44:39.495Z,20.00
2023-03-13T05:45:39.469Z,24.00
2023-03-13T05:46:39.521Z,28.00
2023-03-13T05:47:39.516Z,28.00
2023-03-13T05:48:39.443Z,28.00
2023-03-13T05:49:39.434Z,28.00
2023-03-13T05:50:39.435Z,32.00
2023-03-13T05:51:39.437Z,36.00
2023-03-13T05:52:39.418Z,44.00
2023-03-13T05:53:39.405Z,56.00
2023-03-13T05:54:39.397Z,60.00
2023-03-13T05:55:39.377Z,60.00
2023-03-13T05:56:39.355Z,56.00
2023-03-13T05:57:39.370Z,52.00
2023-03-13T05:58:39.338Z,48.00
2023-03-13T05:59:39.325Z,48.00
2023-03-13T06:00:39.325Z,56.00
2023-03-13T06:01:39.312Z,60.00
2023-03-13T06:02:39.315Z,64.00
2023-03-13T06:03:39.433Z,68.00
2023-03-13T06:04:39.461Z,72.00
2023-03-13T06:05:39.269Z,68.00
2023-03-13T06:06:39.256Z,76.00
2023-03-13T06:07:39.272Z,88.00
2023-03-13T06:08:39.236Z,96.00
2023-03-13T06:09:39.223Z,88.00
2023-03-13T06:10:39.208Z,92.00
2023-03-13T06:11:39.213Z,100.00
2023-03-13T06:12:39.231Z,104.00
2023-03-13T06:13:39.173Z,108.00
2023-03-13T06:14:39.184Z,112.00
2023-03-13T06:15:39.168Z,116.00
2023-03-13T06:16:39.151Z,124.00
2023-03-13T06:17:39.156Z,128.00
2023-03-13T06:18:39.124Z,116.00
2023-03-13T06:19:39.136Z,92.00
2023-03-13T06:20:40.694Z,96.00
2023-03-13T06:21:39.106Z,108.00
2023-03-13T06:22:39.102Z,124.00
2023-03-13T06:23:39.098Z,148.00
2023-03-13T06:24:39.086Z,160.00
2023-03-13T06:25:39.076Z,172.00
2023-03-13T06:26:39.079Z,164.00
2023-03-13T06:27:39.043Z,168.00
2023-03-13T06:28:39.021Z,180.00
2023-03-13T06:29:39.013Z,196.00
2023-03-13T06:30:39.017Z,240.00
2023-03-13T06:31:39.177Z,284.00
2023-03-13T06:32:39.151Z,280.00
2023-03-13T06:33:38.971Z,288.00
2023-03-13T06:34:38.981Z,272.00
2023-03-13T06:35:54.833Z,224.00
2023-03-13T06:36:41.064Z,188.00
2023-03-13T06:37:38.958Z,180.00
2023-03-13T06:38:38.922Z,224.00
2023-03-13T06:39:38.921Z,260.00
2023-03-13T06:40:38.904Z,260.00
2023-03-13T06:41:38.889Z,272.00
2023-03-13T06:42:38.897Z,312.00
2023-03-13T06:43:38.870Z,324.00
2023-03-13T06:44:39.001Z,304.00
2023-03-13T06:45:53.727Z,288.00
2023-03-13T06:46:38.888Z,288.00
2023-03-13T06:47:41.718Z,296.00
2023-03-13T06:48:38.822Z,300.00
2023-03-13T06:49:38.801Z,296.00
2023-03-13T06:50:38.813Z,264.00
2023-03-13T06:51:38.786Z,248.00
2023-03-13T06:52:43.946Z,240.00
2023-03-13T06:53:40.784Z,248.00
2023-03-13T06:54:38.763Z,248.00
2023-03-13T06:55:38.746Z,260.00
2023-03-13T06:56:38.731Z,260.00
2023-03-13T06:57:38.739Z,244.00
2023-03-13T06:58:38.715Z,240.00
2023-03-13T06:59:38.707Z,260.00
2023-03-13T07:00:38.753Z,256.00
2023-03-13T07:01:38.687Z,288.00
2023-03-13T07:02:38.677Z,320.00
2023-03-13T07:03:38.723Z,296.00
2023-03-13T07:04:38.659Z,268.00
2023-03-13T07:05:38.639Z,300.00
2023-03-13T07:06:38.629Z,328.00
2023-03-13T07:07:38.640Z,328.00
2023-03-13T07:08:38.619Z,296.00
2023-03-13T07:09:38.595Z,288.00
2023-03-13T07:10:38.589Z,292.00
2023-03-13T07:11:38.587Z,312.00
2023-03-13T07:12:38.572Z,308.00
2023-03-13T07:13:38.570Z,296.00
2023-03-13T07:14:38.548Z,288.00
2023-03-13T07:15:38.552Z,284.00
2023-03-13T07:16:38.566Z,284.00
2023-03-13T07:17:38.616Z,316.00
2023-03-13T07:18:38.511Z,328.00
2023-03-13T07:19:38.509Z,376.00
2023-03-13T07:20:38.563Z,368.00
2023-03-13T07:21:38.469Z,372.00
2023-03-13T07:22:38.482Z,404.00
2023-03-13T07:23:38.462Z,432.00
2023-03-13T07:24:38.479Z,452.00
2023-03-13T07:25:38.439Z,456.00
2023-03-13T07:26:38.507Z,456.00
2023-03-13T07:27:38.440Z,448.00
2023-03-13T07:28:38.410Z,424.00
2023-03-13T07:29:38.404Z,412.00
2023-03-13T07:30:38.377Z,456.00
2023-03-13T07:31:38.434Z,576.00
2023-03-13T07:32:38.465Z,592.00
2023-03-13T07:33:38.355Z,632.00
2023-03-13T07:34:38.342Z,760.00
2023-03-13T07:35:40.180Z,760.00
2023-03-13T07:36:39.418Z,580.00
2023-03-13T07:37:38.302Z,520.00
2023-03-13T07:38:38.310Z,544.00
2023-03-13T07:39:38.279Z,492.00
2023-03-13T07:40:38.268Z,444.00
2023-03-13T07:41:39.053Z,404.00
2023-03-13T07:42:39.261Z,384.00
2023-03-13T07:43:38.249Z,332.00
2023-03-13T07:44:38.247Z,372.00
2023-03-13T07:45:38.274Z,416.00
2023-03-13T07:46:38.214Z,396.00
2023-03-13T07:47:38.195Z,368.00
2023-03-13T07:48:39.198Z,360.00
2023-03-13T07:49:38.187Z,364.00
2023-03-13T07:50:38.200Z,408.00
2023-03-13T07:51:43.990Z,472.00
2023-03-13T07:52:40.179Z,492.00
2023-03-13T07:53:38.208Z,508.00
2023-03-13T07:54:38.214Z,544.00
2023-03-13T07:55:38.159Z,560.00
2023-03-13T07:56:38.108Z,616.00
2023-03-13T07:57:38.104Z,636.00
2023-03-13T07:58:38.159Z,604.00
2023-03-13T07:59:38.086Z,540.00
2023-03-13T08:00:38.069Z,544.00
2023-03-13T08:01:38.060Z,648.00
2023-03-13T08:02:38.103Z,812.00
2023-03-13T08:03:38.167Z,824.00
2023-03-13T08:04:38.026Z,816.00
2023-03-13T08:05:38.046Z,760.00
2023-03-13T08:06:38.022Z,888.00
2023-03-13T08:07:38.011Z,876.00
2023-03-13T08:08:37.998Z,896.00
2023-03-13T08:09:37.974Z,928.00
2023-03-13T08:10:37.986Z,872.00
2023-03-13T08:11:37.973Z,816.00
2023-03-13T08:12:37.954Z,892.00
2023-03-13T08:13:38.950Z,940.00
2023-03-13T08:14:37.991Z,1076.00
2023-03-13T08:15:37.922Z,1240.00
2023-03-13T08:16:37.940Z,1076.00
2023-03-13T08:17:37.885Z,864.00
2023-03-13T08:18:37.888Z,820.00
2023-03-13T08:19:37.874Z,800.00
2023-03-13T08:20:37.862Z,724.00
2023-03-13T08:21:37.852Z,808.00
2023-03-13T08:22:37.831Z,728.00
2023-03-13T08:23:37.836Z,760.00
2023-03-13T08:24:37.804Z,872.00
2023-03-13T08:25:37.802Z,944.00
2023-03-13T08:26:37.791Z,1088.00
2023-03-13T08:27:37.778Z,1100.00
2023-03-13T08:28:37.803Z,1068.00
2023-03-13T08:29:37.756Z,1100.00
2023-03-13T08:30:37.795Z,988.00
2023-03-13T08:31:37.750Z,788.00
2023-03-13T08:32:37.778Z,788.00
2023-03-13T08:33:37.736Z,984.00
2023-03-13T08:34:37.709Z,992.00
2023-03-13T08:35:37.730Z,1100.00
2023-03-13T08:36:37.690Z,1128.00
2023-03-13T08:37:37.680Z,1040.00
2023-03-13T08:38:37.679Z,1088.00
2023-03-13T08:39:37.658Z,1176.00
2023-03-13T08:40:37.656Z,1224.00
2023-03-13T08:41:37.644Z,1076.00
2023-03-13T08:42:37.630Z,1020.00
2023-03-13T08:43:37.630Z,952.00
2023-03-13T08:44:37.615Z,884.00
2023-03-13T08:45:37.609Z,884.00
2023-03-13T08:46:37.680Z,872.00
2023-03-13T08:47:37.564Z,852.00
2023-03-13T08:48:37.572Z,768.00
2023-03-13T08:49:38.589Z,788.00
2023-03-13T08:50:37.548Z,836.00
2023-03-13T08:51:37.535Z,816.00
2023-03-13T08:52:37.534Z,712.00
2023-03-13T08:53:37.527Z,700.00
2023-03-13T08:54:37.523Z,788.00
2023-03-13T08:55:37.488Z,788.00
2023-03-13T08:56:37.482Z,820.00
2023-03-13T08:57:37.481Z,1152.00
2023-03-13T08:58:37.491Z,1268.00
2023-03-13T08:59:37.454Z,1248.00
2023-03-13T09:00:37.453Z,1420.00
2023-03-13T09:01:37.433Z,1440.00
2023-03-13T09:02:37.487Z,1272.00
2023-03-13T09:03:37.479Z,1280.00
2023-03-13T09:04:37.412Z,1412.00
2023-03-13T09:05:53.152Z,1352.00
2023-03-13T09:07:04.768Z,1244.00
2023-03-13T09:07:37.452Z,1060.00
2023-03-13T09:08:37.414Z,888.00
2023-03-13T09:09:37.430Z,728.00
2023-03-13T09:10:37.457Z,616.00
2023-03-13T09:11:37.383Z,644.00
2023-03-13T09:12:37.391Z,840.00
2023-03-13T09:13:37.383Z,1208.00
2023-03-13T09:14:37.374Z,1204.00
2023-03-13T09:15:37.403Z,1392.00
2023-03-13T09:16:37.321Z,1496.00
2023-03-13T09:17:37.299Z,1592.00
2023-03-13T09:18:37.355Z,1516.00
2023-03-13T09:19:38.182Z,1556.00
2023-03-13T09:20:37.342Z,1552.00
2023-03-13T09:21:37.301Z,1428.00
2023-03-13T09:22:37.293Z,1300.00
2023-03-13T09:23:37.304Z,1224.00
2023-03-13T09:24:37.254Z,996.00
2023-03-13T09:25:37.252Z,924.00
2023-03-13T09:26:37.242Z,932.00
2023-03-13T09:27:37.220Z,952.00
2023-03-13T09:28:37.254Z,1076.00
2023-03-13T09:29:37.202Z,1184.00
2023-03-13T09:30:37.229Z,1476.00
2023-03-13T09:31:37.282Z,1872.00
2023-03-13T09:32:37.269Z,1692.00
2023-03-13T09:33:37.238Z,1604.00
2023-03-13T09:34:37.246Z,1700.00
2023-03-13T09:35:37.246Z,1608.00
2023-03-13T09:36:37.155Z,1772.00
2023-03-13T09:37:37.141Z,1592.00
2023-03-13T09:38:37.154Z,1544.00
2023-03-13T09:39:37.142Z,1572.00
2023-03-13T09:40:37.114Z,1668.00
2023-03-13T09:41:37.142Z,1888.00
2023-03-13T09:42:37.081Z,2304.00
2023-03-13T09:43:37.087Z,2880.00
2023-03-13T09:44:37.079Z,2592.00
2023-03-13T09:45:37.103Z,2500.00
2023-03-13T09:46:37.062Z,2640.00
2023-03-13T09:47:37.039Z,2396.00
2023-03-13T09:48:37.077Z,2388.00
2023-03-13T09:49:37.048Z,2896.00
2023-03-13T09:50:37.031Z,3144.00
2023-03-13T09:51:37.014Z,3472.00
2023-03-13T09:52:37.006Z,3192.00
2023-03-13T09:53:37.017Z,3212.00
2023-03-13T09:54:36.989Z,3512.00
2023-03-13T09:55:36.980Z,4532.00
2023-03-13T09:56:36.945Z,3872.00
2023-03-13T09:57:36.964Z,4160.00
2023-03-13T09:58:37.078Z,3732.00
2023-03-13T09:59:36.974Z,3012.00
2023-03-13T10:00:36.932Z,2812.00
2023-03-13T10:01:36.963Z,2760.00
2023-03-13T10:02:36.891Z,2492.00
2023-03-13T10:03:36.897Z,2132.00
2023-03-13T10:04:37.803Z,2084.00
2023-03-13T10:05:36.831Z,1744.00
2023-03-13T10:06:36.885Z,1628.00
2023-03-13T10:07:36.814Z,1644.00
2023-03-13T10:08:36.802Z,1712.00
2023-03-13T10:09:36.875Z,1636.00
2023-03-13T10:10:36.804Z,1604.00
2023-03-13T10:11:36.792Z,1404.00
2023-03-13T10:12:36.789Z,1332.00
2023-03-13T10:13:36.818Z,1380.00
2023-03-13T10:14:36.804Z,1396.00
2023-03-13T10:15:36.761Z,1292.00
2023-03-13T10:16:36.787Z,1308.00
2023-03-13T10:17:37.742Z,1296.00
2023-03-13T10:18:36.729Z,1248.00
2023-03-13T10:19:36.767Z,1224.00
2023-03-13T10:20:36.757Z,1272.00
2023-03-13T10:21:36.680Z,1252.00
2023-03-13T10:22:36.716Z,1292.00
2023-03-13T10:23:36.728Z,1224.00
2023-03-13T10:24:36.693Z,1072.00
2023-03-13T10:25:36.833Z,1072.00
2023-03-13T10:26:36.676Z,1272.00
2023-03-13T10:27:36.606Z,1376.00
2023-03-13T10:28:36.698Z,1344.00
2023-03-13T10:29:36.610Z,1068.00
2023-03-13T10:30:36.899Z,956.00
2023-03-13T10:31:37.862Z,928.00
2023-03-13T10:32:36.636Z,908.00
2023-03-13T10:33:38.486Z,952.00
2023-03-13T10:34:36.927Z,996.00
2023-03-13T10:36:14.522Z,1164.00
2023-03-13T10:36:37.551Z,1236.00
2023-03-13T10:38:16.373Z,1220.00
2023-03-13T10:38:41.245Z,1040.00
2023-03-13T10:39:49.841Z,956.00
2023-03-13T10:40:37.617Z,864.00
2023-03-13T10:45:26.009Z,868.00
2023-03-13T10:48:12.348Z,832.00
2023-03-13T10:48:41.343Z,700.00
2023-03-13T10:50:56.257Z,740.00
2023-03-13T10:51:39.698Z,944.00
2023-03-13T10:52:03.854Z,956.00
2023-03-13T10:56:00.247Z,912.00
2023-03-13T10:57:54.644Z,840.00
2023-03-13T10:58:46.342Z,680.00
2023-03-13T10:59:38.696Z,700.00
2023-03-13T11:02:07.768Z,1096.00
2023-03-13T11:03:14.596Z,1240.00
2023-03-13T11:06:40.916Z,1820.00
2023-03-13T11:08:00.759Z,2108.00
2023-03-13T11:09:03.561Z,2676.00
2023-03-13T11:09:28.720Z,2752.00
2023-03-13T11:10:24.114Z,2252.00
2023-03-13T11:11:24.138Z,1860.00
2023-03-13T11:12:24.130Z,2048.00
2023-03-13T11:13:35.506Z,2752.00
2023-03-13T11:14:39.317Z,3612.00
2023-03-13T11:15:25.673Z,5048.00
2023-03-13T11:16:32.269Z,3540.00
2023-03-13T11:17:35.029Z,2372.00
2023-03-13T11:18:30.158Z,2540.00
2023-03-13T11:19:27.091Z,2532.00
2023-03-13T11:20:24.123Z,3024.00
2023-03-13T11:21:25.632Z,2544.00
2023-03-13T11:22:25.140Z,1780.00
2023-03-13T11:23:29.368Z,2404.00
2023-03-13T11:25:10.937Z,3140.00
2023-03-13T11:27:02.022Z,2928.00
2023-03-13T11:27:04.476Z,2396.00
2023-03-13T11:27:58.975Z,2264.00
2023-03-13T11:29:06.655Z,2128.00
2023-03-13T11:29:56.808Z,1492.00
2023-03-13T11:30:56.723Z,1380.00
2023-03-13T11:31:57.587Z,1320.00
2023-03-13T11:32:59.525Z,1408.00
2023-03-13T11:33:57.624Z,1340.00
2023-03-13T11:34:58.319Z,1228.00
2023-03-13T11:35:57.593Z,1168.00
2023-03-13T11:36:57.275Z,1164.00
2023-03-13T11:37:56.382Z,1168.00
2023-03-13T11:38:57.144Z,1136.00
2023-03-13T11:39:56.374Z,984.00
2023-03-13T11:40:56.369Z,864.00
2023-03-13T11:41:56.403Z,796.00
2023-03-13T11:42:56.372Z,756.00
2023-03-13T11:43:58.640Z,892.00
2023-03-13T11:44:56.358Z,1076.00
2023-03-13T11:45:56.555Z,1304.00
2023-03-13T11:46:56.296Z,1288.00
2023-03-13T11:47:56.262Z,1300.00
2023-03-13T11:48:56.381Z,1156.00
2023-03-13T11:49:56.346Z,1116.00
2023-03-13T11:50:57.168Z,1068.00
2023-03-13T11:51:56.288Z,1020.00
2023-03-13T11:52:56.254Z,1168.00
2023-03-13T11:53:56.348Z,1444.00
2023-03-13T11:54:56.982Z,1584.00
2023-03-13T11:55:56.242Z,1392.00
2023-03-13T11:56:56.320Z,1416.00
2023-03-13T11:57:56.229Z,1288.00
2023-03-13T11:58:56.217Z,1224.00
2023-03-13T11:59:56.345Z,1244.00
2023-03-13T12:00:56.358Z,1200.00
2023-03-13T12:01:56.215Z,1248.00
2023-03-13T12:02:56.248Z,1368.00
2023-03-13T12:03:56.176Z,1344.00
2023-03-13T12:04:56.090Z,1672.00
2023-03-13T12:05:56.123Z,1956.00
2023-03-13T12:06:56.044Z,1884.00
2023-03-13T12:07:56.074Z,1636.00
2023-03-13T12:08:56.015Z,1476.00
2023-03-13T12:09:56.085Z,1392.00
2023-03-13T12:10:55.993Z,1608.00
2023-03-13T12:11:55.993Z,1716.00
2023-03-13T12:12:55.980Z,1764.00
2023-03-13T12:13:55.974Z,1596.00
2023-03-13T12:14:56.002Z,1552.00
2023-03-13T12:15:55.998Z,1244.00
2023-03-13T12:16:56.020Z,1148.00
2023-03-13T12:17:56.018Z,1236.00
2023-03-13T12:18:55.911Z,1324.00
2023-03-13T12:19:55.941Z,1328.00
2023-03-13T12:20:55.937Z,1324.00
2023-03-13T12:21:55.972Z,1380.00
2023-03-13T12:22:55.877Z,1516.00
2023-03-13T12:23:55.949Z,1852.00
2023-03-13T12:24:55.908Z,2136.00
2023-03-13T12:25:55.870Z,2092.00
2023-03-13T12:26:55.962Z,1844.00
2023-03-13T12:27:56.017Z,1768.00
2023-03-13T12:28:55.809Z,1912.00
2023-03-13T12:29:56.899Z,2284.00
2023-03-13T12:30:55.926Z,2484.00
2023-03-13T12:31:56.373Z,2716.00
2023-03-13T12:32:55.858Z,3140.00
2023-03-13T12:33:55.772Z,3108.00
2023-03-13T12:34:55.771Z,2252.00
2023-03-13T12:35:55.843Z,2088.00
2023-03-13T12:36:55.793Z,1904.00
2023-03-13T12:37:55.746Z,2072.00
2023-03-13T12:38:55.725Z,2668.00
2023-03-13T12:39:56.857Z,2852.00
2023-03-13T12:40:55.655Z,3416.00
2023-03-13T12:41:55.713Z,3860.00
2023-03-13T12:42:55.683Z,3724.00
2023-03-13T12:44:07.869Z,4576.00
2023-03-13T12:44:57.674Z,4208.00
2023-03-13T12:45:55.770Z,3736.00
2023-03-13T12:46:55.682Z,4676.00
2023-03-13T12:47:55.620Z,3364.00
2023-03-13T12:48:55.600Z,3128.00
2023-03-13T12:49:55.671Z,2972.00
2023-03-13T12:50:55.581Z,3268.00
2023-03-13T12:51:55.605Z,3264.00
2023-03-13T12:52:55.586Z,2596.00
2023-03-13T12:53:55.638Z,2484.00
2023-03-13T12:54:55.542Z,2312.00
2023-03-13T12:55:55.542Z,2128.00
2023-03-13T12:56:55.509Z,2100.00
2023-03-13T12:57:55.586Z,2076.00